Аэропорт
Астана (UACC)

 UACC / TSE
ЗЦ Центральная Азия
Астана (UACC)
Астана (UACC)
 51.02220, 71.46690  / 1165 ft

 UACC 300630Z 25005MPS 220V280 CAVOK 04/M00 Q1033 R22/0///70 NOSIG RMK QFE743/0991
 TAF UACC 292300Z 3000/3024 23006MPS 9999 SCT015 BKN100 TX05/3009Z TNM02/3001Z BECMG 3004/3006 27005MPS BECMG 3013/3015 VRB02MPS
UACC_aip_1708
показать схемы
Название сценария Тип сценария Flight Simulator 9 Flight Simulator X Prepar3D v2 Prepar3D v3 Prepar3D v4 Prepar3D v5 xPlane
Лёгкий сценарий аэропорта г. Астаны бесплатный


2020 © VATRUS division (Privacy Policy)